Time;durP1;ratioP1;P1;durP2;ratioP2;P2;SDS_P1;SDS_P2;PMS_P1;PMS_P2;Temp;Humidity;BMP_temperature;BMP_pressure;BME280_temperature;BME280_humidity;BME280_pressure;Samples;Min_cycle;Max_cycle;Signal;HPM_P1;HPM_P2
2022/08/09 00:01:33;;;;;;;0.65;0.40;;;20.60;99.10;;;;;;5009149;28;20256;-70
2022/08/09 00:03:59;;;;;;;0.47;0.47;;;20.60;98.90;;;;;;5009016;28;20308;-70
2022/08/09 00:06:26;;;;;;;0.57;0.57;;;20.60;99.10;;;;;;5008877;28;20316;-70
2022/08/09 00:08:54;;;;;;;1.65;0.70;;;20.60;99.30;;;;;;5009314;28;20209;-69
2022/08/09 00:11:21;;;;;;;0.60;0.60;;;20.70;99.30;;;;;;5009411;28;20237;-67
2022/08/09 00:13:49;;;;;;;0.45;0.45;;;20.60;99.30;;;;;;5008329;28;20225;-69
2022/08/09 00:16:16;;;;;;;0.50;0.50;;;20.60;99.30;;;;;;5009292;28;20332;-69
2022/08/09 00:18:44;;;;;;;0.40;0.40;;;20.60;99.40;;;;;;5009616;28;20264;-70
2022/08/09 00:21:11;;;;;;;0.40;0.40;;;20.70;99.40;;;;;;5011228;28;20636;-69
2022/08/09 00:23:38;;;;;;;0.40;0.40;;;20.80;99.20;;;;;;5008527;28;20308;-68
2022/08/09 00:26:06;;;;;;;0.45;0.45;;;20.90;99.10;;;;;;5009571;28;20707;-67
2022/08/09 00:28:33;;;;;;;0.57;0.57;;;21.00;99.00;;;;;;5010486;28;20837;-69
2022/08/09 00:31:03;;;;;;;0.52;0.50;;;21.00;99.00;;;;;;5007040;28;20201;-68
2022/08/09 00:33:30;;;;;;;0.50;0.50;;;21.00;99.10;;;;;;5007155;28;20225;-67
2022/08/09 00:35:59;;;;;;;0.82;0.82;;;21.00;98.90;;;;;;5007883;28;20650;-68
2022/08/09 00:38:26;;;;;;;1.70;0.73;;;21.00;98.90;;;;;;5009297;28;20201;-68
2022/08/09 00:40:53;;;;;;;0.60;0.60;;;21.00;99.00;;;;;;5009445;28;20327;-67
2022/08/09 00:43:21;;;;;;;0.63;0.63;;;20.80;99.10;;;;;;5008061;28;20252;-69
2022/08/09 00:45:48;;;;;;;0.50;0.50;;;20.80;99.10;;;;;;5007865;28;20206;-70
2022/08/09 00:48:16;;;;;;;0.65;0.65;;;20.80;99.20;;;;;;5008036;28;20749;-69
2022/08/09 00:50:43;;;;;;;0.98;0.65;;;20.80;99.60;;;;;;5009152;28;20328;-69
2022/08/09 00:53:11;;;;;;;0.95;0.70;;;20.80;99.30;;;;;;5007397;28;20359;-67
2022/08/09 00:55:38;;;;;;;0.50;0.50;;;20.80;99.40;;;;;;5007222;28;20205;-69
2022/08/09 00:58:05;;;;;;;0.40;0.40;;;20.60;99.50;;;;;;5008305;28;20347;-69
2022/08/09 01:00:33;;;;;;;0.50;0.50;;;20.50;99.50;;;;;;5007367;28;20297;-68
2022/08/09 01:03:11;;;;;;;0.40;0.40;;;20.50;99.50;;;;;;5006473;28;20229;-67
2022/08/09 01:05:44;;;;;;;1.02;0.65;;;20.40;99.70;;;;;;5007892;28;20212;-72
2022/08/09 01:08:19;;;;;;;1.55;0.70;;;20.30;99.90;;;;;;5000506;28;20254;-70
2022/08/09 01:10:56;;;;;;;0.50;0.50;;;20.30;99.90;;;;;;5001430;28;20209;-68
2022/08/09 01:13:30;;;;;;;0.40;0.40;;;20.20;99.90;;;;;;5002519;28;20221;-67
2022/08/09 01:15:58;;;;;;;0.40;0.40;;;20.10;99.90;;;;;;5001369;28;20198;-68
2022/08/09 01:18:30;;;;;;;0.40;0.40;;;20.10;99.90;;;;;;5008533;28;20295;-70
2022/08/09 01:21:15;;;;;;;0.60;0.60;;;20.00;99.90;;;;;;5010454;28;20233;-69
2022/08/09 01:23:55;;;;;;;0.68;0.60;;;20.00;99.90;;;;;;5011256;28;20232;-69
2022/08/09 01:26:55;;;;;;;0.52;0.52;;;20.00;99.90;;;;;;5011178;28;20227;-69
2022/08/09 01:29:29;;;;;;;0.60;0.60;;;20.00;99.90;;;;;;5001981;28;20288;-70
2022/08/09 01:32:00;;;;;;;0.60;0.60;;;19.90;99.90;;;;;;5003461;28;20319;-71
2022/08/09 01:34:29;;;;;;;0.50;0.50;;;19.80;99.90;;;;;;5001864;28;20201;-69
2022/08/09 01:36:59;;;;;;;0.50;0.50;;;19.70;99.90;;;;;;5000386;28;20296;-70
2022/08/09 01:39:29;;;;;;;0.50;0.50;;;19.70;99.90;;;;;;5000540;28;22160;-70
2022/08/09 01:42:00;;;;;;;0.60;0.60;;;19.80;99.90;;;;;;5001405;28;20301;-70
2022/08/09 01:44:29;;;;;;;0.60;0.60;;;19.80;99.90;;;;;;5000168;28;20740;-70
2022/08/09 01:46:57;;;;;;;0.40;0.40;;;19.90;99.90;;;;;;5001807;28;20661;-68
2022/08/09 01:49:25;;;;;;;0.50;0.50;;;19.90;99.90;;;;;;5001545;28;20214;-67
2022/08/09 01:51:56;;;;;;;0.70;0.70;;;19.80;99.90;;;;;;5001519;28;20269;-67
2022/08/09 01:54:25;;;;;;;0.40;0.40;;;19.80;99.90;;;;;;4999300;28;20691;-70
2022/08/09 01:56:54;;;;;;;0.40;0.40;;;19.80;99.90;;;;;;5001200;28;20301;-69
2022/08/09 01:59:23;;;;;;;0.50;0.50;;;19.60;99.90;;;;;;5000214;28;20300;-69
2022/08/09 02:01:54;;;;;;;0.40;0.40;;;19.30;99.90;;;;;;5001899;28;20212;-69
2022/08/09 02:04:22;;;;;;;0.45;0.45;;;19.10;99.90;;;;;;4999751;28;20205;-72
2022/08/09 02:07:10;;;;;;;0.63;0.60;;;19.10;99.90;;;;;;5001212;28;20232;-68
2022/08/09 02:09:42;;;;;;;0.50;0.50;;;19.10;99.90;;;;;;5001263;28;20275;-71
2022/08/09 02:12:12;;;;;;;0.40;0.40;;;19.00;99.90;;;;;;5002316;28;20331;-70
2022/08/09 02:14:43;;;;;;;0.55;0.55;;;19.00;99.90;;;;;;5000307;28;20237;-68
2022/08/09 02:17:12;;;;;;;0.50;0.50;;;18.90;99.90;;;;;;5003626;28;20201;-70
2022/08/09 02:19:40;;;;;;;0.85;0.60;;;19.00;99.90;;;;;;5000336;28;20205;-69
2022/08/09 02:22:14;;;;;;;0.65;0.50;;;18.90;99.90;;;;;;5003305;28;20659;-68
2022/08/09 02:24:45;;;;;;;0.47;0.47;;;18.80;99.90;;;;;;5000083;28;20213;-69
2022/08/09 02:27:15;;;;;;;0.50;0.50;;;18.80;99.90;;;;;;5003285;28;20225;-70
2022/08/09 02:29:48;;;;;;;0.30;0.30;;;18.80;99.90;;;;;;5002239;28;20216;-70
2022/08/09 02:32:18;;;;;;;0.50;0.50;;;18.70;99.90;;;;;;5002185;28;20224;-68
2022/08/09 02:34:49;;;;;;;0.50;0.50;;;18.60;99.90;;;;;;5001250;28;20202;-67
2022/08/09 02:37:20;;;;;;;0.40;0.40;;;18.70;99.90;;;;;;5002976;28;20207;-70
2022/08/09 02:39:50;;;;;;;0.45;0.45;;;18.70;99.90;;;;;;5005600;28;20694;-69
2022/08/09 02:42:23;;;;;;;0.43;0.43;;;18.70;99.90;;;;;;5008700;28;20320;-69
2022/08/09 02:44:57;;;;;;;0.38;0.38;;;18.70;99.90;;;;;;5011512;28;20274;-69
2022/08/09 02:47:26;;;;;;;0.40;0.40;;;18.70;99.90;;;;;;5019900;28;20215;-70
2022/08/09 02:49:57;;;;;;;0.95;0.82;;;18.70;99.90;;;;;;5018142;28;20309;-70
2022/08/09 02:52:29;;;;;;;0.60;0.60;;;18.80;99.90;;;;;;5017074;28;20225;-67
2022/08/09 02:54:57;;;;;;;0.52;0.52;;;18.80;99.90;;;;;;5010766;28;20292;-68
2022/08/09 02:57:25;;;;;;;0.50;0.50;;;18.70;99.90;;;;;;5011055;28;20228;-71
2022/08/09 02:59:54;;;;;;;0.60;0.60;;;18.70;99.90;;;;;;5010154;28;20671;-69
2022/08/09 03:04:58;;;;;;;0.55;0.55;;;18.70;99.90;;;;;;5043923;28;20673;-60
2022/08/09 03:07:27;;;;;;;0.65;0.65;;;18.80;99.90;;;;;;5048557;28;20224;-60
2022/08/09 03:09:55;;;;;;;0.50;0.50;;;18.80;99.90;;;;;;5048232;28;20294;-60
2022/08/09 03:12:24;;;;;;;0.52;0.52;;;18.80;99.90;;;;;;5047821;28;20596;-60
2022/08/09 03:14:51;;;;;;;0.65;0.65;;;18.80;99.90;;;;;;5028162;28;20242;-58
2022/08/09 03:17:21;;;;;;;0.60;0.60;;;18.80;99.90;;;;;;5029210;28;20291;-60
2022/08/09 03:19:48;;;;;;;0.47;0.47;;;18.80;99.90;;;;;;5028360;28;20291;-60
2022/08/09 03:22:16;;;;;;;0.73;0.50;;;18.80;99.90;;;;;;5029254;28;20207;-60
2022/08/09 03:24:43;;;;;;;0.82;0.70;;;18.70;99.90;;;;;;5027992;28;20228;-60
2022/08/09 03:27:12;;;;;;;0.50;0.50;;;18.70;99.90;;;;;;5028578;28;20224;-61
2022/08/09 03:29:39;;;;;;;0.50;0.50;;;18.60;99.90;;;;;;5028481;28;20201;-60
2022/08/09 03:32:08;;;;;;;0.65;0.65;;;18.60;99.90;;;;;;5029285;28;20556;-61
2022/08/09 03:34:36;;;;;;;1.52;0.63;;;18.50;99.90;;;;;;5027843;28;20514;-61
2022/08/09 03:37:03;;;;;;;0.60;0.60;;;18.50;99.90;;;;;;5027876;28;20212;-60
2022/08/09 03:39:30;;;;;;;0.60;0.60;;;18.40;99.90;;;;;;5028495;28;20216;-60
2022/08/09 03:41:57;;;;;;;0.32;0.32;;;18.30;99.90;;;;;;5028949;28;20299;-60
2022/08/09 03:44:24;;;;;;;0.45;0.45;;;18.30;99.90;;;;;;5029421;28;20231;-61
2022/08/09 03:46:52;;;;;;;0.40;0.40;;;18.30;99.90;;;;;;5030017;28;20300;-60
2022/08/09 03:49:21;;;;;;;0.63;0.63;;;18.20;99.90;;;;;;5029009;28;20205;-61
2022/08/09 03:51:54;;;;;;;0.50;0.50;;;18.20;99.90;;;;;;5028325;28;20686;-61
2022/08/09 03:54:22;;;;;;;0.60;0.60;;;18.20;99.90;;;;;;5028672;28;20267;-60
2022/08/09 03:56:49;;;;;;;0.40;0.40;;;18.20;99.90;;;;;;5028506;28;20208;-61
2022/08/09 03:59:15;;;;;;;0.52;0.52;;;18.20;99.90;;;;;;5030354;28;20204;-59
2022/08/09 04:01:44;;;;;;;0.60;0.60;;;18.20;99.90;;;;;;5029342;28;20312;-59
2022/08/09 04:04:11;;;;;;;0.47;0.47;;;18.30;99.90;;;;;;5026800;28;20236;-59
2022/08/09 04:06:38;;;;;;;0.40;0.40;;;18.30;99.90;;;;;;5028892;28;20247;-60
2022/08/09 04:09:07;;;;;;;0.70;0.60;;;18.30;99.90;;;;;;5028277;28;20231;-60
2022/08/09 04:11:58;;;;;;;0.63;0.63;;;18.30;99.90;;;;;;5028210;28;20205;-60
2022/08/09 04:14:25;;;;;;;0.60;0.60;;;18.40;99.90;;;;;;5028906;28;20221;-60
2022/08/09 04:16:51;;;;;;;0.70;0.70;;;18.30;99.90;;;;;;5027566;28;20677;-59
2022/08/09 04:19:18;;;;;;;0.52;0.52;;;18.40;99.90;;;;;;5027642;28;20205;-59
2022/08/09 04:21:45;;;;;;;0.70;0.70;;;18.40;99.90;;;;;;5027055;28;20713;-62
2022/08/09 04:24:13;;;;;;;0.50;0.50;;;18.40;99.90;;;;;;5027597;28;20635;-60
2022/08/09 04:26:40;;;;;;;0.50;0.50;;;18.40;99.90;;;;;;5027925;28;20632;-60
2022/08/09 04:29:07;;;;;;;0.77;0.77;;;18.40;99.90;;;;;;5027429;28;20227;-59
2022/08/09 04:31:34;;;;;;;0.60;0.60;;;18.40;99.90;;;;;;5026892;28;20212;-61
2022/08/09 04:34:01;;;;;;;0.70;0.70;;;18.30;99.90;;;;;;5027007;28;20228;-61
2022/08/09 04:36:31;;;;;;;0.60;0.60;;;18.40;99.90;;;;;;5028563;28;20287;-62
2022/08/09 04:39:00;;;;;;;0.60;0.60;;;18.40;99.90;;;;;;5028951;28;20208;-61
2022/08/09 04:41:29;;;;;;;0.47;0.47;;;18.40;99.90;;;;;;5027957;28;20994;-59
2022/08/09 04:43:56;;;;;;;0.47;0.45;;;18.40;99.90;;;;;;5027615;28;20334;-62
2022/08/09 04:46:23;;;;;;;0.73;0.60;;;18.40;99.90;;;;;;5027386;28;20327;-60
2022/08/09 04:48:50;;;;;;;0.80;0.80;;;18.50;99.90;;;;;;5026999;28;20227;-61
2022/08/09 04:51:17;;;;;;;0.70;0.70;;;18.50;99.90;;;;;;5027395;28;20201;-62
2022/08/09 04:53:44;;;;;;;0.63;0.63;;;18.40;99.90;;;;;;5026902;28;20311;-60
2022/08/09 04:56:11;;;;;;;0.60;0.60;;;18.40;99.90;;;;;;5028957;28;20211;-61
2022/08/09 04:58:39;;;;;;;0.80;0.80;;;18.50;99.90;;;;;;5036165;28;20291;-59
2022/08/09 05:01:06;;;;;;;0.50;0.50;;;18.50;99.90;;;;;;5037062;28;20691;-58
2022/08/09 05:03:33;;;;;;;0.60;0.60;;;18.60;99.90;;;;;;5026180;28;20351;-58
2022/08/09 05:06:00;;;;;;;0.63;0.60;;;18.60;99.90;;;;;;5027819;28;20600;-61
2022/08/09 05:08:26;;;;;;;0.50;0.50;;;18.70;99.90;;;;;;5026721;28;20224;-63
2022/08/09 05:10:53;;;;;;;0.60;0.60;;;18.70;99.90;;;;;;5026936;28;20765;-60
2022/08/09 05:13:20;;;;;;;0.60;0.60;;;18.70;99.90;;;;;;5026857;28;20227;-61
2022/08/09 05:15:48;;;;;;;0.60;0.60;;;18.80;99.90;;;;;;5027111;28;20204;-60
2022/08/09 05:18:15;;;;;;;0.47;0.47;;;18.80;99.90;;;;;;5024705;28;20202;-62
2022/08/09 05:20:42;;;;;;;0.70;0.70;;;18.90;99.90;;;;;;5026469;28;20204;-62
2022/08/09 05:23:09;;;;;;;0.70;0.70;;;19.10;99.90;;;;;;5025973;28;20231;-61
2022/08/09 05:25:36;;;;;;;1.70;0.70;;;19.20;99.90;;;;;;5026226;28;20297;-61
2022/08/09 05:28:03;;;;;;;0.73;0.70;;;19.30;99.90;;;;;;5026174;28;21764;-59
2022/08/09 05:30:31;;;;;;;0.70;0.70;;;19.50;99.90;;;;;;5025594;28;20249;-61
2022/08/09 05:32:59;;;;;;;0.68;0.68;;;19.70;99.90;;;;;;5025952;28;20235;-58
2022/08/09 05:35:26;;;;;;;0.80;0.80;;;19.80;99.90;;;;;;5028181;28;20196;-61
2022/08/09 05:37:54;;;;;;;0.90;0.90;;;19.90;99.90;;;;;;5025758;28;20219;-59
2022/08/09 05:40:21;;;;;;;0.80;0.80;;;20.10;99.90;;;;;;5026429;28;20677;-60
2022/08/09 05:42:48;;;;;;;0.90;0.90;;;20.20;99.90;;;;;;5025805;28;20223;-63
2022/08/09 05:45:15;;;;;;;0.90;0.90;;;20.40;99.90;;;;;;5025537;28;20215;-60
2022/08/09 05:47:42;;;;;;;0.93;0.93;;;20.50;99.90;;;;;;5025020;28;20225;-60
2022/08/09 05:50:11;;;;;;;0.70;0.70;;;20.60;99.90;;;;;;5025787;28;20208;-61
2022/08/09 05:52:39;;;;;;;0.80;0.80;;;20.70;99.90;;;;;;5026155;28;20284;-60
2022/08/09 05:55:07;;;;;;;1.20;1.10;;;20.80;99.90;;;;;;5025737;28;20311;-60
2022/08/09 05:57:34;;;;;;;0.68;0.68;;;20.90;99.90;;;;;;5025461;28;20732;-60
2022/08/09 06:00:01;;;;;;;0.90;0.90;;;21.10;99.90;;;;;;5025147;28;20450;-61
2022/08/09 06:02:28;;;;;;;0.73;0.73;;;21.20;99.90;;;;;;5024873;28;20208;-62
2022/08/09 06:04:55;;;;;;;0.80;0.80;;;21.40;99.90;;;;;;5024580;28;20226;-59
2022/08/09 06:07:23;;;;;;;0.90;0.90;;;21.50;99.90;;;;;;5026545;28;20255;-61
2022/08/09 06:09:50;;;;;;;0.90;0.90;;;21.50;99.90;;;;;;5029754;28;20209;-60
2022/08/09 06:12:17;;;;;;;0.82;0.82;;;21.70;99.90;;;;;;5027005;28;20307;-62
2022/08/09 06:14:44;;;;;;;1.00;1.00;;;21.80;99.90;;;;;;5026672;28;20217;-63
2022/08/09 06:17:10;;;;;;;1.10;1.10;;;21.90;99.90;;;;;;5023489;28;20272;-62
2022/08/09 06:19:37;;;;;;;1.08;0.90;;;21.80;99.90;;;;;;5034257;28;20207;-63
2022/08/09 06:22:05;;;;;;;1.65;1.17;;;21.80;99.90;;;;;;5034144;28;20209;-63
2022/08/09 06:24:33;;;;;;;1.75;1.00;;;21.80;99.90;;;;;;5037353;28;20259;-62
2022/08/09 06:27:00;;;;;;;1.88;1.00;;;21.80;99.90;;;;;;5036845;28;20237;-62
2022/08/09 06:29:27;;;;;;;0.90;0.90;;;21.80;99.90;;;;;;5042308;28;20277;-61
2022/08/09 06:31:53;;;;;;;1.00;1.00;;;21.90;99.90;;;;;;5039736;28;20204;-59
2022/08/09 06:34:21;;;;;;;1.42;1.20;;;21.90;99.90;;;;;;5035570;28;20310;-60
2022/08/09 06:36:48;;;;;;;2.70;1.40;;;21.90;99.90;;;;;;5037126;28;20205;-60
2022/08/09 06:39:15;;;;;;;2.20;1.30;;;21.80;99.90;;;;;;5029900;28;20561;-62
2022/08/09 06:41:43;;;;;;;1.42;1.20;;;21.80;99.90;;;;;;5034734;28;20239;-63
2022/08/09 06:44:13;;;;;;;1.20;1.10;;;21.70;99.90;;;;;;5033518;28;20224;-63
2022/08/09 06:46:40;;;;;;;1.25;1.15;;;21.80;99.90;;;;;;5038831;28;20208;-62
2022/08/09 06:49:06;;;;;;;0.90;0.90;;;21.80;99.90;;;;;;5039473;28;20234;-62
2022/08/09 06:51:34;;;;;;;1.13;1.02;;;21.90;99.90;;;;;;5040229;28;20206;-62
2022/08/09 06:54:01;;;;;;;1.65;1.13;;;22.00;99.90;;;;;;5043255;28;20228;-62
2022/08/09 06:56:27;;;;;;;1.40;1.10;;;22.00;99.90;;;;;;5035998;28;20288;-63
2022/08/09 06:58:56;;;;;;;1.13;1.13;;;22.00;99.90;;;;;;5044837;28;20205;-62
2022/08/09 07:01:23;;;;;;;0.95;0.95;;;22.10;99.90;;;;;;5034133;28;20227;-62
2022/08/09 07:03:49;;;;;;;0.93;0.90;;;22.20;99.90;;;;;;5034172;28;20278;-62
2022/08/09 07:06:16;;;;;;;0.90;0.90;;;22.20;99.90;;;;;;5032896;28;20210;-62
2022/08/09 07:08:43;;;;;;;1.02;0.95;;;22.40;99.90;;;;;;5036113;28;20645;-62
2022/08/09 07:11:10;;;;;;;1.08;1.08;;;22.50;99.90;;;;;;5040715;28;20209;-63
2022/08/09 07:13:37;;;;;;;0.80;0.80;;;22.60;99.90;;;;;;5040347;28;20216;-62
2022/08/09 07:16:06;;;;;;;1.23;1.00;;;22.70;99.90;;;;;;5037498;28;20254;-63
2022/08/09 07:18:33;;;;;;;1.25;1.20;;;22.90;99.90;;;;;;5038501;28;20287;-62
2022/08/09 07:20:59;;;;;;;1.20;1.10;;;22.80;99.90;;;;;;5034262;28;20263;-62
2022/08/09 07:23:26;;;;;;;2.63;0.93;;;22.90;99.90;;;;;;5044826;28;20219;-63
2022/08/09 07:25:53;;;;;;;1.27;1.17;;;23.00;99.90;;;;;;5036036;28;20309;-61
2022/08/09 07:28:20;;;;;;;1.33;1.05;;;23.10;99.90;;;;;;5035168;28;20242;-61
2022/08/09 07:30:47;;;;;;;0.80;0.80;;;23.00;99.90;;;;;;5031997;28;20292;-60
2022/08/09 07:33:16;;;;;;;1.17;1.00;;;23.20;99.90;;;;;;5034649;28;20220;-60
2022/08/09 07:35:42;;;;;;;1.25;0.90;;;23.30;99.90;;;;;;5036246;28;20211;-60
2022/08/09 07:38:09;;;;;;;1.42;1.30;;;23.50;99.90;;;;;;5035296;28;20228;-62
2022/08/09 07:40:36;;;;;;;1.30;1.05;;;23.50;99.90;;;;;;5036891;28;20207;-60
2022/08/09 07:43:03;;;;;;;0.88;0.88;;;23.60;99.90;;;;;;5035428;28;20316;-62
2022/08/09 07:45:31;;;;;;;1.00;1.00;;;23.70;99.90;;;;;;5043535;28;20235;-60
2022/08/09 07:47:59;;;;;;;1.50;1.10;;;23.80;99.90;;;;;;5040488;28;20270;-60
2022/08/09 07:50:28;;;;;;;1.20;1.10;;;23.90;99.90;;;;;;5038885;28;20211;-63
2022/08/09 07:52:56;;;;;;;0.93;0.90;;;24.10;99.90;;;;;;5043509;28;20232;-62
2022/08/09 07:55:23;;;;;;;1.00;1.00;;;24.20;99.90;;;;;;5037085;28;20205;-61
2022/08/09 07:57:50;;;;;;;1.10;0.93;;;24.40;99.90;;;;;;5030477;28;20335;-61
2022/08/09 08:00:19;;;;;;;0.82;0.80;;;24.40;99.90;;;;;;5035846;28;20223;-62
2022/08/09 08:02:46;;;;;;;0.77;0.77;;;24.50;99.90;;;;;;5037431;28;20224;-60
2022/08/09 08:05:13;;;;;;;0.90;0.90;;;24.60;99.90;;;;;;5039895;28;20201;-59
2022/08/09 08:07:41;;;;;;;1.00;1.00;;;24.60;99.90;;;;;;5032994;28;20292;-59
2022/08/09 08:10:09;;;;;;;0.93;0.93;;;24.70;99.90;;;;;;5036275;28;20243;-62
2022/08/09 08:12:37;;;;;;;0.77;0.77;;;24.80;99.90;;;;;;5043366;28;20207;-61
2022/08/09 08:15:04;;;;;;;1.20;1.10;;;24.80;99.90;;;;;;5037878;28;20288;-61
2022/08/09 08:17:31;;;;;;;1.13;0.93;;;25.10;99.90;;;;;;5038350;28;20211;-61
2022/08/09 08:19:58;;;;;;;1.45;1.10;;;25.20;99.90;;;;;;5036165;28;20239;-60
2022/08/09 08:22:25;;;;;;;0.90;0.90;;;25.10;99.90;;;;;;5041205;28;20566;-60
2022/08/09 08:24:55;;;;;;;2.10;0.95;;;25.30;99.90;;;;;;5033341;28;20211;-60
2022/08/09 08:27:23;;;;;;;0.90;0.90;;;25.60;99.90;;;;;;5035055;28;20375;-60
2022/08/09 08:29:50;;;;;;;1.00;1.00;;;25.70;99.90;;;;;;5039670;28;20599;-60
2022/08/09 08:32:17;;;;;;;1.00;0.95;;;25.70;99.90;;;;;;5041972;28;20642;-62
2022/08/09 08:34:44;;;;;;;2.08;1.00;;;25.70;99.90;;;;;;5033209;28;20314;-60
2022/08/09 08:37:11;;;;;;;1.10;1.00;;;25.70;99.90;;;;;;5041420;28;20287;-60
2022/08/09 08:39:38;;;;;;;0.80;0.80;;;25.80;99.90;;;;;;5043070;28;20206;-60
2022/08/09 08:42:07;;;;;;;0.68;0.68;;;26.10;99.90;;;;;;5041160;28;20208;-60
2022/08/09 08:44:36;;;;;;;1.15;0.80;;;26.40;99.90;;;;;;5032914;28;20620;-60
2022/08/09 08:47:03;;;;;;;0.80;0.80;;;26.50;99.90;;;;;;5034105;28;20520;-60
2022/08/09 08:49:36;;;;;;;0.70;0.60;;;26.40;99.90;;;;;;5037809;28;20216;-60
2022/08/09 08:52:03;;;;;;;1.20;0.80;;;26.50;99.90;;;;;;5034573;28;20197;-60
2022/08/09 08:54:30;;;;;;;0.95;0.73;;;26.70;99.90;;;;;;5039740;28;20231;-60
2022/08/09 08:56:58;;;;;;;0.80;0.80;;;26.80;99.90;;;;;;5038002;28;20220;-60
2022/08/09 08:59:26;;;;;;;1.73;1.10;;;26.90;99.90;;;;;;5040641;28;20196;-60
2022/08/09 09:01:54;;;;;;;0.90;0.90;;;27.00;99.90;;;;;;5039592;28;20208;-60
2022/08/09 09:04:25;;;;;;;0.80;0.80;;;27.00;99.90;;;;;;5055202;22;20323;-71
2022/08/09 09:06:56;;;;;;;0.82;0.82;;;27.00;99.90;;;;;;5078560;28;20628;-68
2022/08/09 09:09:26;;;;;;;1.10;1.00;;;26.90;99.90;;;;;;5062815;28;20234;-70
2022/08/09 09:11:54;;;;;;;1.95;0.90;;;26.90;99.90;;;;;;5074069;28;20210;-70
2022/08/09 09:14:25;;;;;;;1.55;1.00;;;27.10;99.90;;;;;;5075722;28;20250;-70
2022/08/09 09:16:54;;;;;;;0.80;0.80;;;27.20;99.90;;;;;;5079679;28;20288;-70
2022/08/09 09:19:21;;;;;;;1.63;0.80;;;27.40;99.90;;;;;;5075734;28;20196;-70
2022/08/09 09:22:05;;;;;;;0.95;0.95;;;27.60;99.90;;;;;;5078870;28;20199;-70
2022/08/09 09:24:34;;;;;;;1.25;0.80;;;27.80;99.90;;;;;;5074328;28;20302;-70
2022/08/09 09:27:03;;;;;;;0.88;0.88;;;27.90;99.80;;;;;;5078422;28;20728;-70
2022/08/09 09:29:35;;;;;;;1.25;0.95;;;28.00;99.70;;;;;;5080626;28;20701;-70
2022/08/09 09:32:04;;;;;;;0.80;0.80;;;28.10;99.40;;;;;;5071656;28;20239;-71
2022/08/09 09:34:31;;;;;;;0.80;0.80;;;28.30;99.30;;;;;;5070100;28;20305;-75
2022/08/09 09:37:00;;;;;;;0.80;0.80;;;28.40;98.70;;;;;;5080307;28;20209;-70
2022/08/09 09:39:28;;;;;;;2.65;1.02;;;28.50;98.50;;;;;;5069689;28;20294;-71
2022/08/09 09:41:56;;;;;;;0.73;0.70;;;28.70;98.20;;;;;;5068050;28;20682;-71
2022/08/09 09:44:25;;;;;;;0.80;0.80;;;28.80;97.80;;;;;;5063875;28;20219;-71
2022/08/09 09:46:56;;;;;;;0.63;0.60;;;28.80;97.70;;;;;;5075750;28;20214;-72
2022/08/09 09:49:25;;;;;;;1.45;0.90;;;29.00;98.00;;;;;;5069798;28;20296;-71
2022/08/09 09:52:01;;;;;;;0.98;0.98;;;29.00;96.70;;;;;;5076045;28;20233;-71
2022/08/09 09:54:36;;;;;;;0.98;0.98;;;29.20;96.90;;;;;;5071398;28;20246;-70
2022/08/09 09:57:14;;;;;;;0.85;0.85;;;29.30;96.50;;;;;;5064372;28;20207;-71
2022/08/09 09:59:41;;;;;;;0.80;0.80;;;29.50;95.10;;;;;;5074286;28;20199;-71
2022/08/09 10:02:09;;;;;;;1.10;1.00;;;29.70;95.60;;;;;;5071270;28;20642;-71
2022/08/09 10:04:37;;;;;;;0.90;0.90;;;29.90;96.00;;;;;;5071797;28;20227;-72
2022/08/09 10:07:04;;;;;;;1.83;0.95;;;30.20;94.70;;;;;;5068052;28;20209;-72
2022/08/09 10:09:47;;;;;;;0.70;0.70;;;30.40;94.20;;;;;;5076509;28;20692;-71
2022/08/09 10:12:24;;;;;;;1.30;0.80;;;30.30;94.40;;;;;;5079393;28;20199;-72
2022/08/09 10:14:51;;;;;;;0.95;0.90;;;30.40;93.10;;;;;;5070119;28;20227;-72
2022/08/09 10:17:20;;;;;;;2.15;1.00;;;30.40;94.00;;;;;;5077889;28;20246;-71
2022/08/09 10:19:49;;;;;;;0.98;0.90;;;30.30;94.00;;;;;;5071672;28;20234;-71
2022/08/09 10:22:15;;;;;;;0.88;0.88;;;30.40;93.90;;;;;;5068899;28;20207;-73
2022/08/09 10:24:43;;;;;;;2.20;0.98;;;30.30;93.70;;;;;;5068713;28;20333;-72
2022/08/09 10:27:11;;;;;;;0.82;0.82;;;30.40;93.80;;;;;;5070845;28;20204;-72
2022/08/09 10:29:39;;;;;;;2.00;0.90;;;30.20;94.00;;;;;;5073640;28;20208;-73
2022/08/09 10:32:06;;;;;;;1.73;0.90;;;30.50;93.80;;;;;;5077200;28;20252;-71
2022/08/09 10:34:34;;;;;;;0.95;0.90;;;30.60;92.70;;;;;;5073288;28;20263;-72
2022/08/09 10:37:02;;;;;;;0.90;0.90;;;30.80;92.40;;;;;;5076649;28;20203;-72
2022/08/09 10:39:29;;;;;;;0.70;0.70;;;30.90;92.60;;;;;;5083387;28;20567;-71
2022/08/09 10:41:56;;;;;;;0.80;0.80;;;30.90;91.80;;;;;;5072317;28;20306;-73
2022/08/09 10:44:29;;;;;;;0.90;0.90;;;31.20;92.30;;;;;;5073192;28;20268;-70
2022/08/09 10:47:25;;;;;;;1.38;0.82;;;31.20;92.60;;;;;;5071402;28;20199;-70
2022/08/09 10:50:03;;;;;;;0.88;0.52;;;31.40;86.40;;;;;;5077972;28;20239;-71
2022/08/09 10:53:04;;;;;;;0.82;0.82;;;31.70;86.30;;;;;;5068344;28;22214;-71
2022/08/09 10:55:33;;;;;;;0.60;0.60;;;31.80;83.20;;;;;;5069742;28;20221;-71
2022/08/09 10:58:00;;;;;;;0.57;0.57;;;31.80;82.80;;;;;;5070927;28;20241;-71
2022/08/09 11:00:36;;;;;;;0.50;0.50;;;31.80;82.10;;;;;;5072395;28;20286;-70
2022/08/09 11:03:18;;;;;;;0.50;0.50;;;31.70;81.50;;;;;;5067768;28;20246;-72
2022/08/09 11:06:19;;;;;;;0.65;0.65;;;31.80;81.30;;;;;;5069997;28;21162;-72
2022/08/09 11:08:48;;;;;;;0.63;0.63;;;32.10;81.80;;;;;;5074520;28;20711;-73
2022/08/09 11:11:15;;;;;;;0.60;0.57;;;32.20;81.70;;;;;;5078822;28;20220;-71
2022/08/09 11:13:42;;;;;;;0.70;0.70;;;32.40;80.50;;;;;;5097398;28;20194;-71
2022/08/09 11:16:35;;;;;;;0.85;0.80;;;32.40;80.50;;;;;;5070906;28;20250;-72
2022/08/09 11:19:02;;;;;;;0.93;0.90;;;32.40;80.30;;;;;;5069531;28;20238;-71
2022/08/09 11:21:55;;;;;;;0.85;0.75;;;32.30;79.00;;;;;;5080561;28;20199;-71
2022/08/09 11:24:24;;;;;;;0.85;0.85;;;32.30;78.20;;;;;;5061198;28;20285;-72
2022/08/09 11:26:51;;;;;;;0.93;0.80;;;32.40;79.40;;;;;;5071623;28;20212;-71
2022/08/09 11:29:52;;;;;;;1.83;0.98;;;32.50;79.20;;;;;;5071491;28;20226;-72
2022/08/09 11:32:43;;;;;;;0.80;0.80;;;32.60;77.90;;;;;;5064774;28;21022;-71
2022/08/09 11:35:25;;;;;;;1.40;0.88;;;32.50;77.30;;;;;;5065237;28;20242;-71
2022/08/09 11:37:53;;;;;;;0.60;0.60;;;32.60;77.80;;;;;;5075992;28;20312;-71
2022/08/09 11:40:30;;;;;;;0.80;0.80;;;32.60;77.00;;;;;;5086843;28;20295;-70
2022/08/09 11:43:00;;;;;;;0.95;0.85;;;32.70;76.20;;;;;;5088760;28;20217;-71
2022/08/09 11:45:29;;;;;;;1.38;0.80;;;32.60;76.00;;;;;;5080078;28;20310;-70
2022/08/09 11:47:57;;;;;;;0.60;0.60;;;32.60;76.30;;;;;;5070530;28;20218;-70
2022/08/09 11:50:25;;;;;;;0.63;0.63;;;32.70;76.50;;;;;;5075252;28;20689;-71
2022/08/09 11:53:17;;;;;;;1.38;0.80;;;32.80;76.90;;;;;;5070724;28;20243;-71
2022/08/09 11:55:45;;;;;;;3.92;1.33;;;32.80;76.50;;;;;;5075765;28;20624;-71
2022/08/09 11:58:45;;;;;;;1.15;1.00;;;32.80;76.70;;;;;;5075504;28;20223;-72
2022/08/09 12:01:13;;;;;;;1.33;0.82;;;32.80;76.50;;;;;;5074869;28;20716;-72
2022/08/09 12:03:41;;;;;;;0.70;0.70;;;32.70;77.00;;;;;;5077105;28;20225;-71
2022/08/09 12:06:15;;;;;;;0.73;0.73;;;32.70;76.40;;;;;;5074669;28;20310;-72
2022/08/09 12:08:49;;;;;;;2.50;0.80;;;32.70;76.60;;;;;;5076350;28;20209;-72
2022/08/09 12:11:20;;;;;;;0.60;0.60;;;32.90;76.80;;;;;;5072429;28;20227;-71
2022/08/09 12:13:50;;;;;;;1.17;0.80;;;33.00;76.10;;;;;;5075184;28;20239;-72
2022/08/09 12:16:19;;;;;;;0.63;0.63;;;33.00;75.20;;;;;;5074175;28;20302;-72
2022/08/09 12:18:47;;;;;;;2.22;0.80;;;33.00;74.70;;;;;;5076799;28;20647;-72
2022/08/09 12:21:25;;;;;;;2.30;0.80;;;33.10;74.90;;;;;;5071121;28;20277;-72
2022/08/09 12:23:52;;;;;;;1.05;0.70;;;33.20;74.70;;;;;;5075787;28;20296;-72
2022/08/09 12:26:21;;;;;;;0.80;0.80;;;33.20;75.60;;;;;;5068405;28;20631;-72
2022/08/09 12:28:50;;;;;;;0.73;0.65;;;33.10;74.20;;;;;;5076754;28;20227;-70
2022/08/09 12:31:19;;;;;;;0.68;0.68;;;33.10;75.10;;;;;;5088317;28;20227;-69
2022/08/09 12:33:46;;;;;;;0.90;0.90;;;33.00;75.70;;;;;;5085727;28;20600;-69
2022/08/09 12:36:13;;;;;;;1.23;0.80;;;33.00;75.30;;;;;;5079855;28;20323;-72
2022/08/09 12:38:40;;;;;;;2.78;0.95;;;33.10;74.40;;;;;;5068662;28;20626;-71
2022/08/09 12:41:07;;;;;;;1.02;0.70;;;33.20;75.20;;;;;;5072353;28;20203;-71
2022/08/09 12:43:36;;;;;;;1.88;1.00;;;33.00;74.30;;;;;;5072267;28;20294;-72
2022/08/09 12:46:03;;;;;;;1.38;0.82;;;33.00;75.40;;;;;;5077492;28;20221;-71
2022/08/09 12:48:30;;;;;;;0.55;0.50;;;33.10;75.50;;;;;;5075812;28;20290;-71
2022/08/09 12:50:58;;;;;;;0.70;0.70;;;33.20;75.60;;;;;;5072178;28;20230;-72
2022/08/09 12:53:28;;;;;;;0.50;0.50;;;33.20;74.80;;;;;;5077399;28;20200;-74
2022/08/09 12:56:05;;;;;;;0.73;0.73;;;33.10;75.30;;;;;;5077686;28;20224;-71
2022/08/09 12:58:32;;;;;;;0.85;0.85;;;33.20;75.90;;;;;;5066648;28;20207;-72
2022/08/09 13:01:02;;;;;;;0.57;0.57;;;33.30;75.70;;;;;;5078751;28;20206;-71
2022/08/09 13:03:30;;;;;;;0.60;0.60;;;33.50;75.40;;;;;;5074665;28;20554;-72